Time;durP1;ratioP1;P1;durP2;ratioP2;P2;SDS_P1;SDS_P2;PMS_P1;PMS_P2;Temp;Humidity;BMP_temperature;BMP_pressure;BME280_temperature;BME280_humidity;BME280_pressure;Samples;Min_cycle;Max_cycle;Signal;HPM_P1;HPM_P2
2023/03/10 00:00:26;;;;;;;22.97;9.60;;;0.50;57.20;;;;;;9900890;30;20263;-82
2023/03/10 00:05:48;;;;;;;20.97;8.70;;;0.40;56.90;;;;;;9863240;30;20495;-86
2023/03/10 00:11:10;;;;;;;17.37;7.73;;;0.50;60.50;;;;;;9857332;30;20195;-82
2023/03/10 00:16:31;;;;;;;16.90;7.33;;;0.50;63.50;;;;;;9859622;30;20497;-84
2023/03/10 00:21:52;;;;;;;14.33;6.07;;;0.50;69.40;;;;;;9845661;30;20404;-87
2023/03/10 00:27:14;;;;;;;11.03;4.73;;;0.50;71.30;;;;;;9795633;30;20215;-86
2023/03/10 00:32:35;;;;;;;10.40;4.40;;;0.50;77.90;;;;;;9807355;30;20300;-87
2023/03/10 00:37:57;;;;;;;10.80;4.77;;;0.20;82.80;;;;;;9826799;30;20216;-86
2023/03/10 00:43:18;;;;;;;9.50;4.67;;;0.10;92.20;;;;;;9880495;30;20238;-86
2023/03/10 00:48:41;;;;;;;10.53;4.50;;;0.00;95.50;;;;;;9863662;30;20295;-89
2023/03/10 00:54:02;;;;;;;9.93;4.37;;;-0.10;97.50;;;;;;9872392;30;20240;-85
2023/03/10 00:59:25;;;;;;;9.63;4.90;;;-0.10;99.00;;;;;;9844419;30;20212;-86
2023/03/10 01:04:47;;;;;;;13.83;5.23;;;-0.20;99.80;;;;;;9831097;30;20268;-87
2023/03/10 01:10:10;;;;;;;13.13;5.43;;;-0.20;99.90;;;;;;9820617;30;20213;-86
2023/03/10 01:15:31;;;;;;;13.93;5.47;;;-0.20;99.90;;;;;;9806430;30;20240;-86
2023/03/10 01:21:05;;;;;;;11.27;4.67;;;-0.20;99.90;;;;;;9853201;30;20205;-80
2023/03/10 01:26:27;;;;;;;8.90;4.93;;;-0.20;99.90;;;;;;9837316;30;20243;-84
2023/03/10 01:31:49;;;;;;;13.77;5.80;;;-0.30;99.90;;;;;;9842119;30;20281;-86
2023/03/10 01:37:10;;;;;;;11.73;6.00;;;-0.30;99.90;;;;;;9842092;30;20266;-88
2023/03/10 01:42:31;;;;;;;8.93;4.33;;;-0.30;99.90;;;;;;9842418;30;20267;-84
2023/03/10 01:47:52;;;;;;;11.27;5.13;;;-0.40;99.90;;;;;;9846819;30;20236;-86
2023/03/10 01:53:18;;;;;;;9.73;5.13;;;-0.40;99.90;;;;;;9815480;30;20239;-86
2023/03/10 01:58:43;;;;;;;11.10;5.43;;;-0.40;99.90;;;;;;9812913;30;20271;-85
2023/03/10 02:04:13;;;;;;;10.93;5.50;;;-0.50;99.90;;;;;;9813382;30;20202;-88
2023/03/10 02:09:39;;;;;;;13.27;5.80;;;-0.60;99.90;;;;;;9836144;30;20400;-87
2023/03/10 02:15:01;;;;;;;11.17;5.50;;;-0.50;99.90;;;;;;9834448;30;20539;-87
2023/03/10 02:20:39;;;;;;;10.67;5.37;;;-0.50;99.90;;;;;;9836212;30;20249;-82
2023/03/10 02:26:15;;;;;;;9.37;5.20;;;-0.60;99.90;;;;;;9834895;30;20229;-88
2023/03/10 02:31:37;;;;;;;8.27;4.77;;;-0.70;99.90;;;;;;9848336;30;20209;-87
2023/03/10 02:36:58;;;;;;;12.63;4.40;;;-0.60;99.90;;;;;;9843164;30;20223;-87
2023/03/10 02:42:22;;;;;;;10.43;4.40;;;-0.60;99.90;;;;;;9892442;30;20220;-85
2023/03/10 02:47:43;;;;;;;8.60;3.90;;;-0.60;99.90;;;;;;9856264;30;20403;-83
2023/03/10 02:53:16;;;;;;;11.33;4.10;;;-0.60;99.90;;;;;;9844433;30;20312;-85
2023/03/10 02:58:40;;;;;;;9.10;4.53;;;-0.50;99.90;;;;;;9809879;30;20218;-84
2023/03/10 03:04:04;;;;;;;7.90;4.67;;;-0.60;99.90;;;;;;9798315;30;20211;-86
2023/03/10 03:09:25;;;;;;;8.23;4.60;;;-0.60;99.90;;;;;;9828875;30;20205;-83
2023/03/10 03:14:47;;;;;;;8.47;4.37;;;-0.60;99.90;;;;;;9834780;30;20280;-87
2023/03/10 03:20:13;;;;;;;11.23;4.70;;;-0.80;99.90;;;;;;9834352;30;20234;-86
2023/03/10 03:25:40;;;;;;;9.43;4.43;;;-0.80;99.90;;;;;;9821523;30;20297;-84
2023/03/10 03:31:04;;;;;;;11.43;5.47;;;-0.80;99.90;;;;;;9822272;30;20210;-86
2023/03/10 03:36:25;;;;;;;17.37;6.43;;;-0.80;99.90;;;;;;9812696;30;20242;-81
2023/03/10 03:41:47;;;;;;;13.13;6.33;;;-0.80;99.90;;;;;;9819558;30;20225;-86
2023/03/10 03:47:09;;;;;;;17.40;7.37;;;-0.90;99.90;;;;;;9808369;30;20265;-87
2023/03/10 03:52:32;;;;;;;19.93;7.63;;;-0.80;99.90;;;;;;9831966;30;20461;-85
2023/03/10 03:57:54;;;;;;;14.67;6.93;;;-0.80;99.90;;;;;;9845100;30;20381;-87
2023/03/10 04:03:15;;;;;;;15.90;7.37;;;-0.90;99.90;;;;;;9845012;30;20578;-83
2023/03/10 04:08:38;;;;;;;20.83;7.63;;;-0.80;99.90;;;;;;9843403;30;20409;-83
2023/03/10 04:13:59;;;;;;;15.90;7.70;;;-0.80;99.90;;;;;;9844614;30;20477;-83
2023/03/10 04:19:21;;;;;;;15.63;7.53;;;-0.80;99.90;;;;;;9844496;30;20505;-84
2023/03/10 04:24:46;;;;;;;22.27;8.73;;;-0.80;99.90;;;;;;9869805;30;20231;-86
2023/03/10 04:30:11;;;;;;;23.43;10.50;;;-0.80;99.90;;;;;;9882292;30;20205;-82
2023/03/10 04:35:39;;;;;;;17.70;9.67;;;-0.80;99.90;;;;;;9872765;30;20260;-81
2023/03/10 04:41:03;;;;;;;15.33;7.50;;;-0.90;99.90;;;;;;9847117;30;20205;-83
2023/03/10 04:46:31;;;;;;;20.20;8.63;;;-0.90;99.90;;;;;;9823390;30;20285;-81
2023/03/10 04:51:53;;;;;;;13.80;7.50;;;-0.90;99.90;;;;;;9870220;30;20277;-85
2023/03/10 04:57:15;;;;;;;15.20;8.43;;;-0.90;99.90;;;;;;9846777;30;20209;-82
2023/03/10 05:02:38;;;;;;;15.23;8.50;;;-1.00;99.90;;;;;;9847791;30;20284;-87
2023/03/10 05:08:01;;;;;;;18.00;9.30;;;-0.90;99.90;;;;;;9843851;30;20217;-86
2023/03/10 05:13:23;;;;;;;11.73;8.50;;;-0.90;99.90;;;;;;9845179;30;20263;-88
2023/03/10 05:18:45;;;;;;;14.27;8.60;;;-1.00;99.90;;;;;;9844707;30;20209;-88
2023/03/10 05:24:10;;;;;;;18.30;11.33;;;-0.90;99.90;;;;;;9843327;30;20217;-87
2023/03/10 05:29:31;;;;;;;23.47;14.60;;;-0.90;99.90;;;;;;9839683;30;20522;-85
2023/03/10 05:35:03;;;;;;;16.10;9.80;;;-1.00;99.90;;;;;;9849857;30;20264;-87
2023/03/10 05:40:26;;;;;;;15.53;10.57;;;-0.90;99.90;;;;;;9853870;30;20205;-87
2023/03/10 05:45:58;;;;;;;18.53;11.30;;;-1.00;99.90;;;;;;9850837;30;20240;-87
2023/03/10 05:51:23;;;;;;;18.87;11.60;;;-0.80;99.90;;;;;;9825479;30;20531;-86
2023/03/10 05:56:45;;;;;;;21.67;12.93;;;-0.80;99.90;;;;;;9813287;30;20287;-83
2023/03/10 06:02:07;;;;;;;22.87;12.63;;;-0.80;99.90;;;;;;9814419;30;20212;-82
2023/03/10 06:07:29;;;;;;;20.30;12.27;;;-0.60;99.90;;;;;;9815680;30;20276;-86
2023/03/10 06:12:51;;;;;;;16.20;10.93;;;-0.70;99.90;;;;;;9825196;30;20466;-87
2023/03/10 06:18:12;;;;;;;19.43;11.90;;;-0.50;99.90;;;;;;9839858;30;20239;-84
2023/03/10 06:23:34;;;;;;;20.37;12.77;;;-0.50;99.90;;;;;;9828196;30;20293;-84
2023/03/10 06:28:55;;;;;;;22.93;12.93;;;-0.50;99.90;;;;;;9800098;30;20293;-84
2023/03/10 06:34:16;;;;;;;22.00;12.67;;;-0.40;99.90;;;;;;9811203;30;20258;-83
2023/03/10 06:39:38;;;;;;;37.77;19.87;;;-0.30;99.90;;;;;;9831306;30;20278;-84
2023/03/10 06:45:00;;;;;;;29.30;14.60;;;-0.30;99.90;;;;;;9811859;30;20241;-84
2023/03/10 06:50:21;;;;;;;29.10;15.97;;;-0.20;99.90;;;;;;9857537;30;20222;-84
2023/03/10 06:55:42;;;;;;;22.43;14.80;;;-0.20;99.90;;;;;;9812051;30;20237;-82
2023/03/10 07:01:06;;;;;;;19.73;12.43;;;-0.20;99.90;;;;;;9824091;30;20195;-83
2023/03/10 07:06:27;;;;;;;24.87;14.43;;;-0.20;99.90;;;;;;9812657;30;20217;-84
2023/03/10 07:11:48;;;;;;;23.73;12.97;;;-0.30;99.90;;;;;;9847419;30;20213;-83
2023/03/10 07:17:10;;;;;;;32.97;18.30;;;-0.20;99.90;;;;;;9834620;30;20264;-83
2023/03/10 07:22:31;;;;;;;28.93;16.73;;;0.00;99.90;;;;;;9837161;30;20239;-84
2023/03/10 07:27:52;;;;;;;24.23;14.70;;;0.20;99.90;;;;;;9834381;30;20401;-84
2023/03/10 07:33:14;;;;;;;30.53;14.80;;;0.30;99.90;;;;;;9846025;30;20258;-84
2023/03/10 07:38:35;;;;;;;32.77;14.93;;;0.30;99.90;;;;;;9852440;30;20213;-85
2023/03/10 07:43:57;;;;;;;39.10;18.17;;;0.40;99.90;;;;;;9845388;30;20221;-82
2023/03/10 07:49:19;;;;;;;26.27;15.23;;;0.40;99.90;;;;;;9832407;30;20219;-83
2023/03/10 07:54:43;;;;;;;31.70;15.17;;;0.30;99.90;;;;;;9821595;30;20250;-84
2023/03/10 08:00:05;;;;;;;25.63;14.37;;;0.30;99.90;;;;;;9833643;30;20199;-83
2023/03/10 08:05:31;;;;;;;40.87;18.60;;;0.20;99.90;;;;;;9823665;30;20309;-84
2023/03/10 08:11:04;;;;;;;45.73;19.23;;;0.10;99.90;;;;;;9833146;30;20210;-83
2023/03/10 08:16:25;;;;;;;42.10;18.80;;;0.20;99.90;;;;;;9844078;30;20269;-86
2023/03/10 08:21:47;;;;;;;42.03;19.30;;;0.20;99.90;;;;;;9814749;30;20253;-80
2023/03/10 08:27:08;;;;;;;56.50;25.20;;;0.30;99.90;;;;;;9845501;30;20203;-87
2023/03/10 08:32:30;;;;;;;92.83;35.53;;;0.40;99.90;;;;;;9831283;30;20242;-82
2023/03/10 08:37:54;;;;;;;89.77;29.93;;;0.40;99.90;;;;;;9839250;30;20228;-87
2023/03/10 08:43:15;;;;;;;104.63;36.63;;;0.50;99.90;;;;;;9823549;30;20215;-82
2023/03/10 08:48:37;;;;;;;63.97;23.23;;;0.50;99.90;;;;;;9840652;30;20220;-80
2023/03/10 08:54:01;;;;;;;198.07;54.80;;;0.50;99.90;;;;;;9855384;30;20227;-80
2023/03/10 08:59:24;;;;;;;116.07;41.33;;;0.50;99.90;;;;;;9853803;30;20199;-85
2023/03/10 09:04:45;;;;;;;186.47;52.23;;;0.60;99.90;;;;;;9859180;30;20214;-85
2023/03/10 09:10:07;;;;;;;195.37;62.10;;;0.80;99.90;;;;;;9842965;30;20282;-86
2023/03/10 09:15:28;;;;;;;136.10;55.70;;;0.80;99.90;;;;;;9840478;30;20286;-83
2023/03/10 09:20:50;;;;;;;72.57;31.57;;;0.90;99.90;;;;;;9838229;30;20278;-83
2023/03/10 09:26:12;;;;;;;41.27;20.33;;;0.90;99.90;;;;;;9829995;30;20222;-84
2023/03/10 09:31:35;;;;;;;24.30;14.10;;;1.00;99.90;;;;;;9840254;30;20211;-87
2023/03/10 09:36:56;;;;;;;29.53;16.33;;;1.10;99.90;;;;;;9828015;30;20249;-88
2023/03/10 09:42:23;;;;;;;35.40;18.93;;;1.00;99.90;;;;;;9840613;30;20217;-87
2023/03/10 09:47:56;;;;;;;36.17;19.17;;;1.10;99.90;;;;;;9839374;30;20217;-86
2023/03/10 09:53:36;;;;;;;37.77;18.67;;;1.20;99.90;;;;;;9864877;30;20265;-84
2023/03/10 09:59:23;;;;;;;42.20;21.83;;;1.30;99.90;;;;;;9856889;30;20232;-86
2023/03/10 10:04:47;;;;;;;42.73;21.27;;;1.40;99.90;;;;;;9838696;30;20645;-87
2023/03/10 10:10:31;;;;;;;35.00;18.13;;;1.70;99.90;;;;;;9834436;30;20214;-85
2023/03/10 10:15:57;;;;;;;17.57;11.10;;;1.80;99.90;;;;;;9857943;30;20234;-85
2023/03/10 10:22:08;;;;;;;21.33;13.57;;;1.80;99.90;;;;;;9855985;30;20214;-86
2023/03/10 10:27:30;;;;;;;22.87;14.87;;;2.00;99.90;;;;;;9831859;30;20208;-83
2023/03/10 10:33:00;;;;;;;20.63;12.80;;;2.00;99.90;;;;;;9809625;30;20266;-88
2023/03/10 10:38:27;;;;;;;21.57;12.27;;;2.00;99.90;;;;;;9829416;30;20203;-81
2023/03/10 10:43:49;;;;;;;23.53;13.27;;;2.00;99.90;;;;;;9843972;30;20417;-85
2023/03/10 10:49:32;;;;;;;30.90;15.40;;;2.20;99.90;;;;;;9846228;30;20199;-81
2023/03/10 10:54:57;;;;;;;23.97;13.40;;;2.50;99.90;;;;;;9884973;30;20232;-83
2023/03/10 11:00:26;;;;;;;21.27;11.03;;;2.40;99.90;;;;;;9849048;30;20295;-86
2023/03/10 11:05:48;;;;;;;25.50;14.60;;;2.40;99.90;;;;;;9852044;30;20204;-83
2023/03/10 11:11:12;;;;;;;20.77;11.53;;;2.70;99.90;;;;;;9829703;30;20216;-86
2023/03/10 11:16:39;;;;;;;25.80;11.77;;;2.90;99.90;;;;;;9889558;30;20227;-84
2023/03/10 11:22:16;;;;;;;28.77;17.17;;;2.80;99.90;;;;;;9842842;30;20227;-85
2023/03/10 11:27:43;;;;;;;21.03;12.87;;;2.70;99.90;;;;;;9824842;30;20578;-85
2023/03/10 11:33:21;;;;;;;19.90;12.07;;;2.60;99.90;;;;;;9843819;30;20236;-82
2023/03/10 11:38:45;;;;;;;24.23;13.30;;;2.60;99.90;;;;;;9841707;30;20211;-89
2023/03/10 11:44:36;;;;;;;26.83;14.87;;;2.50;99.90;;;;;;9820394;30;20235;-88
2023/03/10 11:50:14;;;;;;;29.00;13.97;;;2.40;99.90;;;;;;9876559;30;20265;-82
2023/03/10 11:55:37;;;;;;;39.43;18.30;;;2.40;99.90;;;;;;9880486;30;20234;-83
2023/03/10 12:00:59;;;;;;;37.33;18.67;;;2.60;99.90;;;;;;9851513;30;20511;-85
2023/03/10 12:06:35;;;;;;;16.57;10.47;;;2.80;99.90;;;;;;9853616;30;20221;-87
2023/03/10 12:11:57;;;;;;;20.60;12.67;;;2.80;99.90;;;;;;9847523;30;20239;-89
2023/03/10 12:17:18;;;;;;;22.63;14.10;;;2.90;99.90;;;;;;9840689;30;20286;-87
2023/03/10 12:22:45;;;;;;;30.43;14.20;;;2.80;99.90;;;;;;9841518;30;20392;-85
2023/03/10 12:28:16;;;;;;;17.80;11.00;;;2.80;99.90;;;;;;9832338;30;20231;-84
2023/03/10 12:33:40;;;;;;;38.13;19.07;;;2.90;99.90;;;;;;9839716;30;20255;-84
2023/03/10 12:39:24;;;;;;;30.37;16.03;;;3.00;99.90;;;;;;9829224;30;20529;-86
2023/03/10 12:44:51;;;;;;;30.83;16.07;;;2.90;99.90;;;;;;9840766;30;20232;-85
2023/03/10 12:50:25;;;;;;;33.30;16.47;;;2.80;99.90;;;;;;9864150;30;20228;-86
2023/03/10 12:56:13;;;;;;;45.13;19.93;;;2.60;99.90;;;;;;9809950;30;20562;-89
2023/03/10 13:01:41;;;;;;;27.93;16.60;;;2.60;99.90;;;;;;9835098;30;20190;-87
2023/03/10 13:07:14;;;;;;;26.40;14.50;;;2.60;99.90;;;;;;9839866;30;20224;-83
2023/03/10 13:13:04;;;;;;;23.13;13.63;;;2.60;99.90;;;;;;9808734;30;20232;-88
2023/03/10 13:18:25;;;;;;;35.93;17.77;;;2.50;99.90;;;;;;9820793;30;20243;-86
2023/03/10 13:23:46;;;;;;;26.23;15.43;;;2.60;99.90;;;;;;9838858;30;20408;-86
2023/03/10 13:29:16;;;;;;;29.23;16.10;;;2.30;99.90;;;;;;9826244;30;20292;-83
2023/03/10 13:34:38;;;;;;;26.70;14.63;;;2.40;99.90;;;;;;9829553;30;20272;-86
2023/03/10 13:40:08;;;;;;;35.13;19.70;;;2.40;99.90;;;;;;9817403;30;20212;-87
2023/03/10 13:45:32;;;;;;;35.30;17.27;;;2.40;99.90;;;;;;9850555;30;20214;-86
2023/03/10 13:51:28;;;;;;;32.37;18.30;;;2.40;99.90;;;;;;9854715;30;20338;-86
2023/03/10 13:56:55;;;;;;;34.17;16.17;;;2.50;99.90;;;;;;9798449;30;20286;-87
2023/03/10 14:02:24;;;;;;;45.33;17.83;;;2.50;99.90;;;;;;9788534;30;20224;-86
2023/03/10 14:07:58;;;;;;;47.20;21.03;;;2.40;99.90;;;;;;9778690;30;20236;-87
2023/03/10 14:13:40;;;;;;;40.40;19.20;;;2.30;99.90;;;;;;9791351;30;20303;-86
2023/03/10 14:19:01;;;;;;;53.33;24.40;;;2.20;99.90;;;;;;9786263;30;20299;-87
2023/03/10 14:24:23;;;;;;;40.17;18.03;;;2.20;99.90;;;;;;9761353;30;20232;-87
2023/03/10 14:29:50;;;;;;;31.73;15.53;;;2.20;99.90;;;;;;9806686;30;20216;-86
2023/03/10 14:35:13;;;;;;;51.53;23.40;;;2.10;99.90;;;;;;9844663;30;20275;-87
2023/03/10 14:40:42;;;;;;;31.50;16.03;;;2.20;99.90;;;;;;9837008;30;20231;-87
2023/03/10 14:46:04;;;;;;;60.77;26.07;;;2.20;99.90;;;;;;9856921;30;20819;-87
2023/03/10 14:51:26;;;;;;;49.33;23.37;;;2.00;99.90;;;;;;9853726;30;20223;-88
2023/03/10 14:56:58;;;;;;;33.90;18.50;;;2.00;99.90;;;;;;9841305;30;20243;-85
2023/03/10 15:02:23;;;;;;;34.33;19.43;;;2.00;99.90;;;;;;9842352;30;20219;-86
2023/03/10 15:07:46;;;;;;;28.87;16.30;;;2.00;99.90;;;;;;9842952;30;20211;-86
2023/03/10 15:13:13;;;;;;;20.90;13.40;;;1.90;99.90;;;;;;9828886;30;20215;-85
2023/03/10 15:18:34;;;;;;;27.77;16.80;;;1.90;99.90;;;;;;9833490;30;20395;-82
2023/03/10 15:23:56;;;;;;;27.50;15.60;;;1.80;99.90;;;;;;9868177;30;20263;-87
2023/03/10 15:29:47;;;;;;;31.60;15.03;;;1.80;99.90;;;;;;9859251;30;20243;-84
2023/03/10 15:35:10;;;;;;;29.80;15.33;;;1.80;99.90;;;;;;9815980;30;20251;-87
2023/03/10 15:40:33;;;;;;;30.63;15.87;;;1.70;99.90;;;;;;9836825;30;20218;-84
2023/03/10 15:45:54;;;;;;;27.80;14.00;;;1.80;99.90;;;;;;9853789;30;20207;-86
2023/03/10 15:51:16;;;;;;;15.30;11.40;;;1.80;99.90;;;;;;9862712;30;20470;-87
2023/03/10 15:56:38;;;;;;;19.60;11.33;;;1.60;99.90;;;;;;9834195;30;20246;-86
2023/03/10 16:01:59;;;;;;;16.03;11.37;;;1.60;99.90;;;;;;9843589;30;20547;-85
2023/03/10 16:08:13;;;;;;;15.63;10.57;;;1.50;99.90;;;;;;9851527;30;20203;-86
2023/03/10 16:13:35;;;;;;;33.97;15.97;;;1.50;99.90;;;;;;9891544;30;20195;-84
2023/03/10 16:18:56;;;;;;;35.37;18.20;;;1.60;99.90;;;;;;9883977;30;20204;-85
2023/03/10 16:24:19;;;;;;;23.37;14.03;;;1.50;99.90;;;;;;9834185;30;20211;-85
2023/03/10 16:29:40;;;;;;;21.87;14.30;;;1.50;99.90;;;;;;9843981;30;20453;-85
2023/03/10 16:35:02;;;;;;;21.77;13.17;;;1.50;99.90;;;;;;9831486;30;20284;-84
2023/03/10 16:40:23;;;;;;;26.00;15.37;;;1.50;99.90;;;;;;9831161;30;20210;-87
2023/03/10 16:45:47;;;;;;;29.07;16.77;;;1.50;99.90;;;;;;9857638;30;20217;-86
2023/03/10 16:51:26;;;;;;;44.70;20.97;;;1.40;99.90;;;;;;9845231;30;20226;-88
2023/03/10 16:56:53;;;;;;;36.37;20.20;;;1.50;99.90;;;;;;9856479;30;20246;-88
2023/03/10 17:02:15;;;;;;;39.83;17.83;;;1.50;99.90;;;;;;9857964;30;20195;-85
2023/03/10 17:07:36;;;;;;;28.77;15.07;;;1.50;99.90;;;;;;9857060;30;20211;-88
2023/03/10 17:13:06;;;;;;;69.73;27.57;;;1.50;99.90;;;;;;9834610;30;20269;-85
2023/03/10 17:18:27;;;;;;;53.30;26.13;;;1.40;99.90;;;;;;9854158;30;20227;-85
2023/03/10 17:23:49;;;;;;;43.77;22.73;;;1.40;99.90;;;;;;9849649;30;20261;-86
2023/03/10 17:29:11;;;;;;;44.90;22.17;;;1.30;99.90;;;;;;9819290;30;20220;-85
2023/03/10 17:34:32;;;;;;;46.87;22.83;;;1.40;99.90;;;;;;9819711;30;20235;-86
2023/03/10 17:39:53;;;;;;;45.17;22.87;;;1.30;99.90;;;;;;9797096;30;20221;-86
2023/03/10 17:45:14;;;;;;;53.33;24.10;;;1.30;99.90;;;;;;9843431;30;20211;-85
2023/03/10 17:50:35;;;;;;;44.00;21.80;;;1.30;99.90;;;;;;9842625;30;20210;-86
2023/03/10 17:56:01;;;;;;;41.47;22.83;;;1.40;99.90;;;;;;9853554;30;20541;-85
2023/03/10 18:01:26;;;;;;;53.27;26.37;;;1.40;99.90;;;;;;9831339;30;20203;-85
2023/03/10 18:06:46;;;;;;;61.70;26.40;;;1.50;99.90;;;;;;9830807;30;20257;-86
2023/03/10 18:12:08;;;;;;;90.53;31.47;;;1.50;99.90;;;;;;9829460;30;20221;-85
2023/03/10 18:17:29;;;;;;;92.63;33.20;;;1.50;99.90;;;;;;9842564;30;20235;-85
2023/03/10 18:22:51;;;;;;;74.43;31.13;;;1.50;99.90;;;;;;9841855;30;20303;-86
2023/03/10 18:28:15;;;;;;;42.13;20.03;;;1.50;99.90;;;;;;9853934;30;20287;-85
2023/03/10 18:33:36;;;;;;;23.10;14.33;;;1.50;99.90;;;;;;9861980;30;20296;-85
2023/03/10 18:38:58;;;;;;;20.30;13.80;;;1.40;99.90;;;;;;9848989;30;20439;-86
2023/03/10 18:44:19;;;;;;;20.57;13.30;;;1.40;99.90;;;;;;9811943;30;20226;-84
2023/03/10 18:49:41;;;;;;;31.23;18.80;;;1.40;99.90;;;;;;9812746;30;20274;-86
2023/03/10 18:55:03;;;;;;;39.83;23.00;;;1.40;99.90;;;;;;9813269;30;20439;-85
2023/03/10 19:00:25;;;;;;;38.33;23.63;;;1.40;99.90;;;;;;9860314;30;20239;-85
2023/03/10 19:05:52;;;;;;;32.97;21.60;;;1.40;99.90;;;;;;9835742;30;20217;-85
2023/03/10 19:11:14;;;;;;;41.23;23.90;;;1.40;99.90;;;;;;9847036;30;20421;-86
2023/03/10 19:16:38;;;;;;;39.00;21.73;;;1.30;99.90;;;;;;9835012;30;20251;-85
2023/03/10 19:21:59;;;;;;;29.60;17.40;;;1.30;99.90;;;;;;9811598;30;20253;-87
2023/03/10 19:27:21;;;;;;;26.60;16.57;;;1.30;99.90;;;;;;9846962;30;20389;-85
2023/03/10 19:32:43;;;;;;;30.27;16.93;;;1.20;99.90;;;;;;9834976;30;20244;-85
2023/03/10 19:38:05;;;;;;;25.93;15.73;;;1.20;99.90;;;;;;9834790;30;20278;-84
2023/03/10 19:43:27;;;;;;;19.37;13.30;;;1.10;99.90;;;;;;9833698;30;20264;-86
2023/03/10 19:48:48;;;;;;;21.57;14.93;;;1.10;99.90;;;;;;9846289;30;20213;-86
2023/03/10 19:54:10;;;;;;;24.00;15.67;;;1.10;99.90;;;;;;9846591;30;20211;-86
2023/03/10 19:59:32;;;;;;;36.27;18.00;;;1.10;99.90;;;;;;9844564;30;20218;-85
2023/03/10 20:04:53;;;;;;;60.17;24.40;;;1.20;99.90;;;;;;9846259;30;20221;-86
2023/03/10 20:10:16;;;;;;;37.10;20.40;;;1.20;99.90;;;;;;9845504;30;20230;-85
2023/03/10 20:15:37;;;;;;;50.53;25.67;;;1.30;99.90;;;;;;9820811;30;20238;-85
2023/03/10 20:21:02;;;;;;;55.40;23.70;;;1.30;99.90;;;;;;9832476;30;20527;-84
2023/03/10 20:26:24;;;;;;;47.60;19.83;;;1.20;99.90;;;;;;9834048;30;20213;-85
2023/03/10 20:31:45;;;;;;;35.03;20.40;;;1.00;99.90;;;;;;9850078;30;20246;-84
2023/03/10 20:37:07;;;;;;;34.33;19.30;;;1.00;99.90;;;;;;9849768;30;20233;-85
2023/03/10 20:42:28;;;;;;;51.73;25.43;;;1.10;99.90;;;;;;9869016;30;20389;-84
2023/03/10 20:47:52;;;;;;;35.33;21.80;;;1.10;99.90;;;;;;9857126;30;20572;-85
2023/03/10 20:53:13;;;;;;;23.53;16.20;;;1.00;99.90;;;;;;9843457;30;20222;-85
2023/03/10 20:58:34;;;;;;;21.43;14.70;;;0.90;99.90;;;;;;9832052;30;20235;-85
2023/03/10 21:03:57;;;;;;;19.73;14.33;;;1.10;99.90;;;;;;9831528;30;20203;-85
2023/03/10 21:09:19;;;;;;;25.30;16.70;;;1.00;99.90;;;;;;9842921;30;20207;-84
2023/03/10 21:14:41;;;;;;;22.87;16.27;;;1.10;99.90;;;;;;9843523;30;20269;-86
2023/03/10 21:20:07;;;;;;;25.30;16.57;;;1.10;99.90;;;;;;9840284;30;20230;-86
2023/03/10 21:25:28;;;;;;;25.27;16.70;;;1.10;99.90;;;;;;9846913;30;20267;-86
2023/03/10 21:30:49;;;;;;;30.10;17.53;;;1.20;99.90;;;;;;9830644;30;20202;-86
2023/03/10 21:36:16;;;;;;;31.97;17.77;;;1.20;99.90;;;;;;9841893;30;20250;-85
2023/03/10 21:41:38;;;;;;;26.70;16.20;;;1.20;99.90;;;;;;9832022;30;20217;-86
2023/03/10 21:46:59;;;;;;;31.23;18.13;;;1.20;99.90;;;;;;9812819;30;20231;-85
2023/03/10 21:52:20;;;;;;;33.17;22.03;;;1.10;99.90;;;;;;9806426;30;20568;-86
2023/03/10 21:57:42;;;;;;;28.07;17.50;;;1.20;99.90;;;;;;9830983;30;20533;-85
2023/03/10 22:03:03;;;;;;;23.97;14.40;;;1.20;99.90;;;;;;9823001;30;20459;-85
2023/03/10 22:08:25;;;;;;;23.07;14.93;;;1.10;99.90;;;;;;9848386;30;20231;-85
2023/03/10 22:13:46;;;;;;;22.80;14.97;;;1.20;99.90;;;;;;9863372;30;20400;-85
2023/03/10 22:19:08;;;;;;;25.33;15.43;;;1.20;99.90;;;;;;9822614;30;20238;-85
2023/03/10 22:24:29;;;;;;;26.07;18.33;;;1.10;99.90;;;;;;9848696;30;20214;-85
2023/03/10 22:29:51;;;;;;;24.97;16.87;;;1.10;99.90;;;;;;9842316;30;20242;-86
2023/03/10 22:35:12;;;;;;;28.73;17.60;;;1.00;99.90;;;;;;9799979;30;20478;-85
2023/03/10 22:40:34;;;;;;;27.40;18.37;;;1.10;99.90;;;;;;9799779;30;20410;-86
2023/03/10 22:45:58;;;;;;;25.97;16.60;;;1.10;99.90;;;;;;9821261;30;20257;-84
2023/03/10 22:51:19;;;;;;;24.47;14.53;;;1.10;99.90;;;;;;9848062;30;20210;-86
2023/03/10 22:56:40;;;;;;;17.67;12.83;;;1.00;99.90;;;;;;9848464;30;20231;-85
2023/03/10 23:02:01;;;;;;;19.77;12.70;;;1.00;99.90;;;;;;9846518;30;20286;-84
2023/03/10 23:07:22;;;;;;;22.23;12.60;;;0.90;99.90;;;;;;9834169;30;20248;-85
2023/03/10 23:12:44;;;;;;;27.00;13.33;;;0.90;99.90;;;;;;9834953;30;20301;-85
2023/03/10 23:18:07;;;;;;;23.63;12.93;;;0.80;99.90;;;;;;9841468;30;20237;-86
2023/03/10 23:23:30;;;;;;;15.37;10.87;;;0.90;99.90;;;;;;9836335;30;20211;-86
2023/03/10 23:28:54;;;;;;;24.73;11.97;;;1.00;99.90;;;;;;9871306;30;20209;-85
2023/03/10 23:34:16;;;;;;;19.00;11.60;;;1.00;99.90;;;;;;9857634;30;20314;-85
2023/03/10 23:39:37;;;;;;;28.20;14.20;;;0.90;99.90;;;;;;9842103;30;20520;-85
2023/03/10 23:44:58;;;;;;;39.87;19.27;;;0.90;99.90;;;;;;9846394;30;20203;-85
2023/03/10 23:50:24;;;;;;;25.77;14.57;;;1.00;99.90;;;;;;9863244;30;20213;-84
2023/03/10 23:55:46;;;;;;;23.37;12.33;;;1.00;99.90;;;;;;9870116;30;20279;-84
